sensor_id;sensor_type;location;lat;lon;timestamp;pressure;altitude;pressure_sealevel;temperature;humidity
32851;BME280;19202;48.992;8.390;2022-10-10T00:00:29;100433.34;;;15.02;64.33
32851;BME280;19202;48.992;8.390;2022-10-10T00:06:07;100441.66;;;14.96;64.44
32851;BME280;19202;48.992;8.390;2022-10-10T00:11:45;100437.59;;;14.89;64.49
32851;BME280;19202;48.992;8.390;2022-10-10T00:17:23;100436.41;;;14.77;64.96
32851;BME280;19202;48.992;8.390;2022-10-10T00:23:00;100433.38;;;14.68;65.71
32851;BME280;19202;48.992;8.390;2022-10-10T00:28:38;100425.53;;;14.48;66.59
32851;BME280;19202;48.992;8.390;2022-10-10T00:34:16;100428.56;;;14.40;67.06
32851;BME280;19202;48.992;8.390;2022-10-10T00:39:54;100421.28;;;14.08;68.72
32851;BME280;19202;48.992;8.390;2022-10-10T00:45:37;100425.13;;;14.19;68.59
32851;BME280;19202;48.992;8.390;2022-10-10T00:51:17;100425.69;;;14.26;67.55
32851;BME280;19202;48.992;8.390;2022-10-10T00:57:05;100426.56;;;14.26;68.57
32851;BME280;19202;48.992;8.390;2022-10-10T01:02:44;100426.44;;;14.29;67.39
32851;BME280;19202;48.992;8.390;2022-10-10T01:08:22;100414.88;;;14.30;67.15
32851;BME280;19202;48.992;8.390;2022-10-10T01:14:07;100418.00;;;14.38;66.81
32851;BME280;19202;48.992;8.390;2022-10-10T01:26:12;100399.53;;;14.35;67.60
32851;BME280;19202;48.992;8.390;2022-10-10T01:32:07;100397.63;;;14.37;67.58
32851;BME280;19202;48.992;8.390;2022-10-10T01:37:47;100405.78;;;14.34;67.04
32851;BME280;19202;48.992;8.390;2022-10-10T01:43:29;100402.25;;;14.34;67.26
32851;BME280;19202;48.992;8.390;2022-10-10T01:49:07;100411.91;;;14.36;67.07
32851;BME280;19202;48.992;8.390;2022-10-10T02:00:48;100406.41;;;14.39;68.28
32851;BME280;19202;48.992;8.390;2022-10-10T02:06:45;100397.50;;;14.41;67.80
32851;BME280;19202;48.992;8.390;2022-10-10T02:12:28;100395.75;;;14.39;67.14
32851;BME280;19202;48.992;8.390;2022-10-10T02:18:09;100386.06;;;14.38;67.05
32851;BME280;19202;48.992;8.390;2022-10-10T02:23:51;100376.50;;;14.34;67.28
32851;BME280;19202;48.992;8.390;2022-10-10T02:29:35;100375.88;;;14.29;67.70
32851;BME280;19202;48.992;8.390;2022-10-10T02:35:22;100380.38;;;14.27;68.21
32851;BME280;19202;48.992;8.390;2022-10-10T02:41:02;100384.00;;;14.26;67.87
32851;BME280;19202;48.992;8.390;2022-10-10T02:46:43;100388.84;;;14.18;68.38
32851;BME280;19202;48.992;8.390;2022-10-10T02:52:22;100390.06;;;14.11;68.30
32851;BME280;19202;48.992;8.390;2022-10-10T02:57:59;100385.91;;;14.06;68.48
32851;BME280;19202;48.992;8.390;2022-10-10T03:03:37;100382.47;;;14.04;68.21
32851;BME280;19202;48.992;8.390;2022-10-10T03:09:15;100379.72;;;14.05;68.02
32851;BME280;19202;48.992;8.390;2022-10-10T03:14:53;100392.22;;;14.03;67.90
32851;BME280;19202;48.992;8.390;2022-10-10T03:20:31;100392.22;;;14.03;67.90
32851;BME280;19202;48.992;8.390;2022-10-10T03:26:09;100387.09;;;14.00;68.21
32851;BME280;19202;48.992;8.390;2022-10-10T03:31:47;100382.59;;;14.01;68.42
32851;BME280;19202;48.992;8.390;2022-10-10T03:37:25;100403.97;;;13.99;69.29
32851;BME280;19202;48.992;8.390;2022-10-10T03:43:03;100412.03;;;13.79;71.32
32851;BME280;19202;48.992;8.390;2022-10-10T03:48:41;100390.13;;;13.74;69.80
32851;BME280;19202;48.992;8.390;2022-10-10T03:54:19;100397.16;;;13.75;69.48
32851;BME280;19202;48.992;8.390;2022-10-10T03:59:57;100404.34;;;13.73;69.83
32851;BME280;19202;48.992;8.390;2022-10-10T04:05:36;100400.78;;;13.74;69.30
32851;BME280;19202;48.992;8.390;2022-10-10T04:11:14;100395.47;;;13.74;69.26
32851;BME280;19202;48.992;8.390;2022-10-10T04:16:52;100399.97;;;13.72;68.97
32851;BME280;19202;48.992;8.390;2022-10-10T04:22:31;100392.31;;;13.66;69.73
32851;BME280;19202;48.992;8.390;2022-10-10T04:28:13;100402.19;;;13.63;69.85
32851;BME280;19202;48.992;8.390;2022-10-10T04:33:51;100393.59;;;13.57;70.19
32851;BME280;19202;48.992;8.390;2022-10-10T04:39:29;100385.59;;;13.39;71.06
32851;BME280;19202;48.992;8.390;2022-10-10T04:45:07;100395.16;;;13.43;70.45
32851;BME280;19202;48.992;8.390;2022-10-10T04:50:53;100382.81;;;13.42;70.96
32851;BME280;19202;48.992;8.390;2022-10-10T04:56:31;100391.59;;;13.44;70.44
32851;BME280;19202;48.992;8.390;2022-10-10T05:02:08;100391.44;;;13.47;70.77
32851;BME280;19202;48.992;8.390;2022-10-10T05:07:47;100391.44;;;13.47;70.60
32851;BME280;19202;48.992;8.390;2022-10-10T05:13:24;100398.47;;;13.48;70.89
32851;BME280;19202;48.992;8.390;2022-10-10T05:19:02;100401.47;;;13.59;70.36
32851;BME280;19202;48.992;8.390;2022-10-10T05:24:40;100390.84;;;13.59;70.99
32851;BME280;19202;48.992;8.390;2022-10-10T05:30:18;100406.97;;;13.56;71.47
32851;BME280;19202;48.992;8.390;2022-10-10T05:36:11;100405.94;;;13.58;72.18
32851;BME280;19202;48.992;8.390;2022-10-10T05:41:49;100413.00;;;13.60;71.89
32851;BME280;19202;48.992;8.390;2022-10-10T05:47:27;100409.97;;;13.67;71.15
32851;BME280;19202;48.992;8.390;2022-10-10T05:53:05;100415.94;;;13.72;71.24
32851;BME280;19202;48.992;8.390;2022-10-10T05:58:44;100418.53;;;13.74;72.07
32851;BME280;19202;48.992;8.390;2022-10-10T06:04:22;100410.47;;;13.75;71.45
32851;BME280;19202;48.992;8.390;2022-10-10T06:10:00;100416.44;;;13.80;71.64
32851;BME280;19202;48.992;8.390;2022-10-10T06:15:38;100408.66;;;13.76;72.39
32851;BME280;19202;48.992;8.390;2022-10-10T06:21:16;100405.13;;;13.75;72.67
32851;BME280;19202;48.992;8.390;2022-10-10T06:26:55;100423.91;;;13.72;74.95
32851;BME280;19202;48.992;8.390;2022-10-10T06:32:33;100422.59;;;13.81;73.37
32851;BME280;19202;48.992;8.390;2022-10-10T06:38:11;100426.50;;;13.92;73.49
32851;BME280;19202;48.992;8.390;2022-10-10T06:43:50;100434.81;;;14.03;73.07
32851;BME280;19202;48.992;8.390;2022-10-10T06:49:29;100445.81;;;14.14;72.58
32851;BME280;19202;48.992;8.390;2022-10-10T06:55:07;100453.41;;;14.22;72.43
32851;BME280;19202;48.992;8.390;2022-10-10T07:00:53;100460.22;;;14.27;72.64
32851;BME280;19202;48.992;8.390;2022-10-10T07:06:31;100468.72;;;14.35;72.16
32851;BME280;19202;48.992;8.390;2022-10-10T07:12:09;100467.19;;;14.49;72.15
32851;BME280;19202;48.992;8.390;2022-10-10T07:17:46;100481.16;;;14.71;72.33
32851;BME280;19202;48.992;8.390;2022-10-10T07:23:25;100479.09;;;15.10;72.86
32851;BME280;19202;48.992;8.390;2022-10-10T07:29:05;100470.09;;;15.62;73.15
32851;BME280;19202;48.992;8.390;2022-10-10T07:34:43;100471.88;;;16.26;72.30
32851;BME280;19202;48.992;8.390;2022-10-10T07:40:21;100478.72;;;16.90;70.74
32851;BME280;19202;48.992;8.390;2022-10-10T07:46:00;100467.78;;;17.53;68.73
32851;BME280;19202;48.992;8.390;2022-10-10T07:51:38;100484.66;;;17.96;66.87
32851;BME280;19202;48.992;8.390;2022-10-10T07:57:16;100485.72;;;18.48;65.77
32851;BME280;19202;48.992;8.390;2022-10-10T08:02:54;100481.50;;;18.97;63.99
32851;BME280;19202;48.992;8.390;2022-10-10T08:08:32;100482.31;;;19.37;62.68
32851;BME280;19202;48.992;8.390;2022-10-10T08:14:10;100487.59;;;20.12;61.58
32851;BME280;19202;48.992;8.390;2022-10-10T08:19:48;100486.75;;;20.72;59.90
32851;BME280;19202;48.992;8.390;2022-10-10T08:25:26;100490.09;;;21.45;55.73
32851;BME280;19202;48.992;8.390;2022-10-10T08:31:06;100488.75;;;22.17;56.91
32851;BME280;19202;48.992;8.390;2022-10-10T08:36:44;100489.59;;;22.39;54.42
32851;BME280;19202;48.992;8.390;2022-10-10T08:42:29;100477.34;;;23.10;52.75
32851;BME280;19202;48.992;8.390;2022-10-10T08:48:13;100468.44;;;23.90;52.27
32851;BME280;19202;48.992;8.390;2022-10-10T08:53:56;100476.88;;;24.37;49.52
32851;BME280;19202;48.992;8.390;2022-10-10T08:59:38;100465.78;;;24.68;47.01
32851;BME280;19202;48.992;8.390;2022-10-10T09:05:23;100472.66;;;24.82;47.32
32851;BME280;19202;48.992;8.390;2022-10-10T09:11:27;100481.22;;;25.25;45.90
32851;BME280;19202;48.992;8.390;2022-10-10T09:17:37;100474.19;;;25.88;44.41
32851;BME280;19202;48.992;8.390;2022-10-10T09:23:43;100470.59;;;26.34;42.90
32851;BME280;19202;48.992;8.390;2022-10-10T09:29:36;100473.25;;;26.61;42.24
32851;BME280;19202;48.992;8.390;2022-10-10T09:35:21;100470.34;;;26.72;43.51
32851;BME280;19202;48.992;8.390;2022-10-10T09:41:05;100469.91;;;27.20;41.55
32851;BME280;19202;48.992;8.390;2022-10-10T09:46:45;100457.56;;;27.25;42.78
32851;BME280;19202;48.992;8.390;2022-10-10T09:52:28;100460.97;;;27.27;41.65
32851;BME280;19202;48.992;8.390;2022-10-10T09:58:15;100448.28;;;27.53;41.97
32851;BME280;19202;48.992;8.390;2022-10-10T10:04:17;100463.03;;;27.77;41.19
32851;BME280;19202;48.992;8.390;2022-10-10T10:09:57;100461.00;;;28.04;40.23
32851;BME280;19202;48.992;8.390;2022-10-10T10:15:36;100455.34;;;27.98;41.15
32851;BME280;19202;48.992;8.390;2022-10-10T10:21:22;100451.53;;;28.16;40.96
32851;BME280;19202;48.992;8.390;2022-10-10T10:27:09;100455.06;;;28.59;39.96
32851;BME280;19202;48.992;8.390;2022-10-10T10:33:00;100458.31;;;28.70;39.32
32851;BME280;19202;48.992;8.390;2022-10-10T10:38:45;100458.03;;;29.30;38.35
32851;BME280;19202;48.992;8.390;2022-10-10T10:45:37;100469.94;;;29.45;38.20
32851;BME280;19202;48.992;8.390;2022-10-10T10:50:52;100467.19;;;29.53;38.28
32851;BME280;19202;48.992;8.390;2022-10-10T11:02:31;100457.44;;;30.29;37.99
32851;BME280;19202;48.992;8.390;2022-10-10T11:08:37;100454.28;;;30.71;36.51
32851;BME280;19202;48.992;8.390;2022-10-10T11:14:51;100440.75;;;30.77;37.14
32851;BME280;19202;48.992;8.390;2022-10-10T11:20:29;100438.41;;;30.74;36.48
32851;BME280;19202;48.992;8.390;2022-10-10T11:26:15;100434.13;;;30.49;34.97
32851;BME280;19202;48.992;8.390;2022-10-10T11:32:15;100447.69;;;30.35;36.20
32851;BME280;19202;48.992;8.390;2022-10-10T11:38:26;100443.28;;;29.87;35.92
32851;BME280;19202;48.992;8.390;2022-10-10T11:44:17;100434.97;;;30.11;36.06
32851;BME280;19202;48.992;8.390;2022-10-10T11:50:14;100436.59;;;30.36;35.59
32851;BME280;19202;48.992;8.390;2022-10-10T11:56:04;100437.84;;;29.71;35.62
32851;BME280;19202;48.992;8.390;2022-10-10T12:01:50;100428.09;;;30.23;35.75
32851;BME280;19202;48.992;8.390;2022-10-10T12:07:38;100418.34;;;30.59;34.63
32851;BME280;19202;48.992;8.390;2022-10-10T12:19:17;100419.22;;;30.82;34.41
32851;BME280;19202;48.992;8.390;2022-10-10T12:25:35;100418.34;;;30.59;33.94
32851;BME280;19202;48.992;8.390;2022-10-10T12:37:10;100415.56;;;31.64;32.82
32851;BME280;19202;48.992;8.390;2022-10-10T12:43:19;100403.00;;;31.70;32.11
32851;BME280;19202;48.992;8.390;2022-10-10T12:49:15;100408.19;;;31.80;31.89
32851;BME280;19202;48.992;8.390;2022-10-10T13:00:39;100404.50;;;32.16;31.70
32851;BME280;19202;48.992;8.390;2022-10-10T13:06:39;100397.81;;;32.19;29.60
32851;BME280;19202;48.992;8.390;2022-10-10T13:12:27;100389.81;;;32.38;30.25
32851;BME280;19202;48.992;8.390;2022-10-10T13:18:09;100383.25;;;32.75;30.29
32851;BME280;19202;48.992;8.390;2022-10-10T13:23:49;100390.03;;;33.00;29.20
32851;BME280;19202;48.992;8.390;2022-10-10T13:29:48;100385.81;;;32.77;28.91
32851;BME280;19202;48.992;8.390;2022-10-10T13:35:26;100392.19;;;32.63;29.48
32851;BME280;19202;48.992;8.390;2022-10-10T13:41:04;100377.28;;;32.29;30.22
32851;BME280;19202;48.992;8.390;2022-10-10T13:46:42;100385.81;;;32.56;30.42
32851;BME280;19202;48.992;8.390;2022-10-10T13:52:22;100384.88;;;32.91;29.83
32851;BME280;19202;48.992;8.390;2022-10-10T13:58:05;100380.38;;;33.04;29.80
32851;BME280;19202;48.992;8.390;2022-10-10T14:03:48;100385.56;;;33.20;29.58
32851;BME280;19202;48.992;8.390;2022-10-10T14:09:54;100389.97;;;32.73;29.79
32851;BME280;19202;48.992;8.390;2022-10-10T14:21:20;100389.47;;;33.05;30.45
32851;BME280;19202;48.992;8.390;2022-10-10T14:32:51;100389.75;;;32.68;30.41
32851;BME280;19202;48.992;8.390;2022-10-10T14:38:29;100387.19;;;32.45;30.85
32851;BME280;19202;48.992;8.390;2022-10-10T14:44:07;100388.94;;;32.02;31.82
32851;BME280;19202;48.992;8.390;2022-10-10T14:49:45;100387.28;;;32.01;31.71
32851;BME280;19202;48.992;8.390;2022-10-10T14:55:23;100388.69;;;31.97;32.19
32851;BME280;19202;48.992;8.390;2022-10-10T15:01:01;100387.53;;;32.06;32.01
32851;BME280;19202;48.992;8.390;2022-10-10T15:06:39;100387.94;;;32.03;32.11
32851;BME280;19202;48.992;8.390;2022-10-10T15:12:17;100387.69;;;31.32;33.16
32851;BME280;19202;48.992;8.390;2022-10-10T15:17:56;100392.00;;;30.44;34.14
32851;BME280;19202;48.992;8.390;2022-10-10T15:23:35;100397.66;;;30.42;34.68
32851;BME280;19202;48.992;8.390;2022-10-10T15:29:12;100398.63;;;30.49;34.92
32851;BME280;19202;48.992;8.390;2022-10-10T15:34:51;100401.41;;;30.41;34.71
32851;BME280;19202;48.992;8.390;2022-10-10T15:40:29;100402.94;;;30.05;35.63
32851;BME280;19202;48.992;8.390;2022-10-10T15:46:07;100416.00;;;29.71;36.09
32851;BME280;19202;48.992;8.390;2022-10-10T15:51:45;100415.44;;;29.12;37.25
32851;BME280;19202;48.992;8.390;2022-10-10T15:57:23;100419.44;;;28.44;38.70
32851;BME280;19202;48.992;8.390;2022-10-10T16:03:06;100408.47;;;28.12;39.95
32851;BME280;19202;48.992;8.390;2022-10-10T16:08:46;100415.06;;;27.68;40.57
32851;BME280;19202;48.992;8.390;2022-10-10T16:14:27;100414.56;;;27.38;41.16
32851;BME280;19202;48.992;8.390;2022-10-10T16:20:06;100423.44;;;27.05;42.27
32851;BME280;19202;48.992;8.390;2022-10-10T16:25:44;100425.19;;;26.71;43.09
32851;BME280;19202;48.992;8.390;2022-10-10T16:31:23;100426.00;;;26.36;44.19
32851;BME280;19202;48.992;8.390;2022-10-10T16:37:06;100419.34;;;26.04;45.02
32851;BME280;19202;48.992;8.390;2022-10-10T16:42:44;100442.63;;;25.69;46.15
32851;BME280;19202;48.992;8.390;2022-10-10T16:48:33;100451.53;;;25.33;48.09
32851;BME280;19202;48.992;8.390;2022-10-10T16:54:15;100454.13;;;25.15;47.97
32851;BME280;19202;48.992;8.390;2022-10-10T16:59:53;100455.00;;;24.97;48.90
32851;BME280;19202;48.992;8.390;2022-10-10T17:05:41;100455.53;;;24.72;51.08
32851;BME280;19202;48.992;8.390;2022-10-10T17:11:21;100459.94;;;24.54;50.59
32851;BME280;19202;48.992;8.390;2022-10-10T17:17:00;100466.00;;;24.27;52.56
32851;BME280;19202;48.992;8.390;2022-10-10T17:22:38;100480.59;;;24.05;53.08
32851;BME280;19202;48.992;8.390;2022-10-10T17:28:18;100485.91;;;23.86;54.48
32851;BME280;19202;48.992;8.390;2022-10-10T17:33:56;100487.06;;;23.63;55.46
32851;BME280;19202;48.992;8.390;2022-10-10T17:39:34;100504.53;;;23.38;56.93
32851;BME280;19202;48.992;8.390;2022-10-10T17:45:14;100515.66;;;23.04;58.31
32851;BME280;19202;48.992;8.390;2022-10-10T17:50:56;100511.44;;;22.79;60.33
32851;BME280;19202;48.992;8.390;2022-10-10T17:56:35;100524.34;;;22.64;59.56
32851;BME280;19202;48.992;8.390;2022-10-10T18:02:16;100528.06;;;22.63;60.50
32851;BME280;19202;48.992;8.390;2022-10-10T18:07:55;100524.72;;;22.60;59.62
32851;BME280;19202;48.992;8.390;2022-10-10T18:13:35;100541.16;;;22.46;60.26
32851;BME280;19202;48.992;8.390;2022-10-10T18:19:13;100548.91;;;22.39;61.01
32851;BME280;19202;48.992;8.390;2022-10-10T18:24:51;100551.59;;;22.28;61.63
32851;BME280;19202;48.992;8.390;2022-10-10T18:30:29;100559.81;;;22.16;62.41
32851;BME280;19202;48.992;8.390;2022-10-10T18:36:08;100562.63;;;22.14;62.24
32851;BME280;19202;48.992;8.390;2022-10-10T18:41:46;100570.97;;;22.11;62.21
32851;BME280;19202;48.992;8.390;2022-10-10T18:47:24;100565.84;;;21.97;63.82
32851;BME280;19202;48.992;8.390;2022-10-10T18:53:02;100577.56;;;21.85;64.30
32851;BME280;19202;48.992;8.390;2022-10-10T18:58:40;100574.19;;;21.70;65.10
32851;BME280;19202;48.992;8.390;2022-10-10T19:04:18;100569.91;;;21.68;64.68
32851;BME280;19202;48.992;8.390;2022-10-10T19:09:57;100581.03;;;21.63;65.48
32851;BME280;19202;48.992;8.390;2022-10-10T19:15:35;100584.91;;;21.48;66.31
32851;BME280;19202;48.992;8.390;2022-10-10T19:21:13;100593.19;;;21.34;66.44
32851;BME280;19202;48.992;8.390;2022-10-10T19:26:54;100604.63;;;21.25;67.15
32851;BME280;19202;48.992;8.390;2022-10-10T19:32:33;100604.59;;;21.14;67.49
32851;BME280;19202;48.992;8.390;2022-10-10T19:38:11;100615.50;;;21.13;67.37
32851;BME280;19202;48.992;8.390;2022-10-10T19:43:49;100615.63;;;20.98;68.36
32851;BME280;19202;48.992;8.390;2022-10-10T19:49:29;100631.03;;;20.96;69.10
32851;BME280;19202;48.992;8.390;2022-10-10T19:55:07;100648.47;;;20.91;69.49
32851;BME280;19202;48.992;8.390;2022-10-10T20:00:46;100656.59;;;20.78;71.39
32851;BME280;19202;48.992;8.390;2022-10-10T20:06:24;100668.00;;;20.69;72.00
32851;BME280;19202;48.992;8.390;2022-10-10T20:12:02;100673.16;;;20.72;70.96
32851;BME280;19202;48.992;8.390;2022-10-10T20:17:40;100690.06;;;20.74;71.44
32851;BME280;19202;48.992;8.390;2022-10-10T20:23:21;100693.69;;;20.73;71.68
32851;BME280;19202;48.992;8.390;2022-10-10T20:28:59;100712.41;;;20.75;70.71
32851;BME280;19202;48.992;8.390;2022-10-10T20:34:37;100708.13;;;20.72;70.56
32851;BME280;19202;48.992;8.390;2022-10-10T20:40:16;100719.53;;;20.63;70.77
32851;BME280;19202;48.992;8.390;2022-10-10T20:45:53;100735.66;;;20.63;70.33
32851;BME280;19202;48.992;8.390;2022-10-10T20:51:31;100744.91;;;20.59;69.87
32851;BME280;19202;48.992;8.390;2022-10-10T20:57:09;100741.91;;;20.51;70.56
32851;BME280;19202;48.992;8.390;2022-10-10T21:02:47;100752.66;;;20.51;70.32
32851;BME280;19202;48.992;8.390;2022-10-10T21:08:26;100761.72;;;20.50;70.29
32851;BME280;19202;48.992;8.390;2022-10-10T21:14:05;100771.91;;;20.45;70.44
32851;BME280;19202;48.992;8.390;2022-10-10T21:19:43;100771.81;;;20.34;71.29
32851;BME280;19202;48.992;8.390;2022-10-10T21:25:21;100784.69;;;20.29;71.69
32851;BME280;19202;48.992;8.390;2022-10-10T21:31:00;100780.69;;;20.35;70.45
32851;BME280;19202;48.992;8.390;2022-10-10T21:36:38;100782.00;;;20.29;71.39
32851;BME280;19202;48.992;8.390;2022-10-10T21:42:17;100786.84;;;20.24;70.60
32851;BME280;19202;48.992;8.390;2022-10-10T21:47:56;100795.22;;;20.19;70.76
32851;BME280;19202;48.992;8.390;2022-10-10T21:53:33;100798.38;;;20.12;71.42
32851;BME280;19202;48.992;8.390;2022-10-10T21:59:12;100800.09;;;20.13;70.47
32851;BME280;19202;48.992;8.390;2022-10-10T22:04:50;100816.09;;;20.14;70.69
32851;BME280;19202;48.992;8.390;2022-10-10T22:10:29;100821.03;;;20.22;69.92
32851;BME280;19202;48.992;8.390;2022-10-10T22:16:08;100828.44;;;20.31;69.47
32851;BME280;19202;48.992;8.390;2022-10-10T22:21:46;100838.44;;;20.29;69.05
32851;BME280;19202;48.992;8.390;2022-10-10T22:27:24;100845.53;;;20.30;69.01
32851;BME280;19202;48.992;8.390;2022-10-10T22:33:02;100850.50;;;20.36;68.92
32851;BME280;19202;48.992;8.390;2022-10-10T22:38:42;100850.09;;;20.42;68.36
32851;BME280;19202;48.992;8.390;2022-10-10T22:44:21;100855.47;;;20.42;68.03
32851;BME280;19202;48.992;8.390;2022-10-10T22:49:59;100860.56;;;20.33;68.35
32851;BME280;19202;48.992;8.390;2022-10-10T22:55:37;100855.13;;;20.34;67.82
32851;BME280;19202;48.992;8.390;2022-10-10T23:01:18;100866.63;;;20.36;67.75
32851;BME280;19202;48.992;8.390;2022-10-10T23:06:56;100874.69;;;20.36;67.24
32851;BME280;19202;48.992;8.390;2022-10-10T23:12:34;100880.06;;;20.36;67.42
32851;BME280;19202;48.992;8.390;2022-10-10T23:18:11;100880.06;;;20.36;66.77
32851;BME280;19202;48.992;8.390;2022-10-10T23:23:50;100875.63;;;20.35;66.88
32851;BME280;19202;48.992;8.390;2022-10-10T23:29:28;100876.69;;;20.33;66.79
32851;BME280;19202;48.992;8.390;2022-10-10T23:35:06;100875.88;;;20.32;66.65
32851;BME280;19202;48.992;8.390;2022-10-10T23:40:45;100887.03;;;20.26;66.89
32851;BME280;19202;48.992;8.390;2022-10-10T23:46:23;100890.88;;;20.22;67.18
32851;BME280;19202;48.992;8.390;2022-10-10T23:52:00;100888.47;;;20.17;66.77
32851;BME280;19202;48.992;8.390;2022-10-10T23:57:38;100890.69;;;20.11;67.53
